createdAt,value
2022-09-10T00:00:21.836Z,15.30
2022-09-10T00:03:05.875Z,15.40
2022-09-10T00:08:47.155Z,15.40
2022-09-10T00:14:20.294Z,15.30
2022-09-10T00:17:04.314Z,15.40
2022-09-10T00:25:51.382Z,15.50
2022-09-10T00:28:45.091Z,15.40
2022-09-10T00:31:40.154Z,15.10
2022-09-10T00:34:26.713Z,15.10
2022-09-10T00:39:58.123Z,15.40
2022-09-10T00:42:46.359Z,15.10
2022-09-10T00:45:25.537Z,15.20
2022-09-10T00:48:07.123Z,15.30
2022-09-10T00:51:06.999Z,15.30
2022-09-10T00:53:48.180Z,15.30
2022-09-10T00:59:24.410Z,15.30
2022-09-10T01:02:01.767Z,15.10
2022-09-10T01:04:41.430Z,15.10
2022-09-10T01:07:27.058Z,15.20
2022-09-10T01:10:24.638Z,15.10
2022-09-10T01:13:34.333Z,15.10
2022-09-10T01:16:53.373Z,14.90
2022-09-10T01:23:52.085Z,15.20
2022-09-10T01:26:47.688Z,14.90
2022-09-10T01:29:54.131Z,14.70
2022-09-10T01:33:07.197Z,14.80
2022-09-10T01:35:46.799Z,14.70
2022-09-10T01:38:29.738Z,15.00
2022-09-10T01:41:04.911Z,14.90
2022-09-10T01:43:45.986Z,14.60
2022-09-10T01:46:42.873Z,14.50
2022-09-10T01:49:32.351Z,14.60
2022-09-10T01:55:44.796Z,14.70
2022-09-10T01:58:45.673Z,14.90
2022-09-10T02:01:54.500Z,14.90
2022-09-10T02:04:34.481Z,15.00
2022-09-10T02:07:24.791Z,14.70
2022-09-10T02:11:06.055Z,14.60
2022-09-10T02:13:46.161Z,14.90
2022-09-10T02:17:04.205Z,14.70
2022-09-10T02:19:47.924Z,14.80
2022-09-10T02:25:27.638Z,14.80
2022-09-10T02:28:05.338Z,14.80
2022-09-10T02:30:48.666Z,14.80
2022-09-10T02:33:29.758Z,14.70
2022-09-10T02:36:40.670Z,14.70
2022-09-10T02:39:36.223Z,14.90
2022-09-10T02:42:12.837Z,15.00
2022-09-10T02:44:54.081Z,14.90
2022-09-10T02:50:39.809Z,14.70
2022-09-10T02:53:31.825Z,14.80
2022-09-10T02:56:36.484Z,14.70
2022-09-10T03:02:08.921Z,15.00
2022-09-10T03:04:46.695Z,14.90
2022-09-10T03:07:38.566Z,15.00
2022-09-10T03:10:37.026Z,14.80
2022-09-10T03:13:38.219Z,14.50
2022-09-10T03:16:27.278Z,14.70
2022-09-10T03:19:03.310Z,14.50
2022-09-10T03:21:52.024Z,14.30
2022-09-10T03:24:52.939Z,14.30
2022-09-10T03:27:30.103Z,14.40
2022-09-10T03:30:12.217Z,14.30
2022-09-10T03:33:03.949Z,14.20
2022-09-10T03:35:54.328Z,14.20
2022-09-10T03:38:36.327Z,14.10
2022-09-10T03:41:24.418Z,14.10
2022-09-10T03:43:59.841Z,14.00
2022-09-10T03:46:34.806Z,14.10
2022-09-10T03:49:17.514Z,14.10
2022-09-10T03:51:53.806Z,14.10
2022-09-10T03:54:28.220Z,14.20
2022-09-10T03:57:06.402Z,14.10
2022-09-10T03:59:46.414Z,14.00
2022-09-10T04:02:22.052Z,14.00
2022-09-10T04:05:15.253Z,14.00
2022-09-10T04:07:51.097Z,14.00
2022-09-10T04:10:26.936Z,14.00
2022-09-10T04:13:17.989Z,14.00
2022-09-10T04:15:53.434Z,14.10
2022-09-10T04:19:03.376Z,14.10
2022-09-10T04:22:21.171Z,14.20
2022-09-10T04:25:10.242Z,14.30
2022-09-10T04:28:42.411Z,14.20
2022-09-10T04:31:16.988Z,14.00
2022-09-10T04:33:54.821Z,14.00
2022-09-10T04:36:29.254Z,14.00
2022-09-10T04:39:10.230Z,14.00
2022-09-10T04:41:45.433Z,14.10
2022-09-10T04:44:29.981Z,14.00
2022-09-10T04:47:09.744Z,14.10
2022-09-10T04:50:04.318Z,14.10
2022-09-10T04:52:41.867Z,14.10
2022-09-10T04:56:31.854Z,13.80
2022-09-10T04:59:11.045Z,13.80
2022-09-10T05:01:47.689Z,13.70
2022-09-10T05:04:35.871Z,13.70
2022-09-10T05:07:15.740Z,13.70
2022-09-10T05:09:53.426Z,13.70
2022-09-10T05:12:28.756Z,13.70
2022-09-10T05:15:03.397Z,13.70
2022-09-10T05:17:52.008Z,13.70
2022-09-10T05:20:27.835Z,13.80
2022-09-10T05:23:10.214Z,13.90
2022-09-10T05:25:52.227Z,13.90
2022-09-10T05:28:53.755Z,14.00
2022-09-10T05:31:29.114Z,14.00
2022-09-10T05:34:40.562Z,14.00
2022-09-10T05:37:22.738Z,14.10
2022-09-10T05:39:57.247Z,14.10
2022-09-10T05:42:33.423Z,14.20
2022-09-10T05:45:11.609Z,14.20
2022-09-10T05:47:48.978Z,14.20
2022-09-10T05:50:25.445Z,14.30
2022-09-10T05:53:01.004Z,14.30
2022-09-10T05:55:36.518Z,14.40
2022-09-10T05:58:11.793Z,14.40
2022-09-10T06:00:47.106Z,14.50
2022-09-10T06:03:22.919Z,14.50
2022-09-10T06:06:29.116Z,14.50
2022-09-10T06:09:03.606Z,14.60
2022-09-10T06:11:38.766Z,14.70
2022-09-10T06:14:22.313Z,14.80
2022-09-10T06:17:05.355Z,14.80
2022-09-10T06:19:48.314Z,14.90
2022-09-10T06:23:20.939Z,14.80
2022-09-10T06:26:05.407Z,14.80
2022-09-10T06:28:58.133Z,14.80
2022-09-10T06:32:04.102Z,14.90
2022-09-10T06:35:03.946Z,14.90
2022-09-10T06:37:58.844Z,14.90
2022-09-10T06:41:47.875Z,14.90
2022-09-10T06:44:41.793Z,14.90
2022-09-10T06:48:38.228Z,15.00
2022-09-10T06:51:16.449Z,15.00
2022-09-10T06:54:39.407Z,15.10
2022-09-10T07:01:29.921Z,15.10
2022-09-10T07:04:10.242Z,15.20
2022-09-10T07:06:46.355Z,15.20
2022-09-10T07:09:21.993Z,15.20
2022-09-10T07:11:57.914Z,15.20
2022-09-10T07:14:34.093Z,15.20
2022-09-10T07:17:11.993Z,15.30
2022-09-10T07:19:52.290Z,15.30
2022-09-10T07:22:26.772Z,15.40
2022-09-10T07:25:04.698Z,15.30
2022-09-10T07:27:52.211Z,15.60
2022-09-10T07:30:28.803Z,15.70
2022-09-10T07:33:05.615Z,15.80
2022-09-10T07:35:40.742Z,15.80
2022-09-10T07:38:17.320Z,15.90
2022-09-10T07:41:02.240Z,16.00
2022-09-10T07:43:40.298Z,16.40
2022-09-10T07:46:21.293Z,16.60
2022-09-10T07:53:05.947Z,16.80
2022-09-10T07:55:41.271Z,16.80
2022-09-10T07:58:16.118Z,16.70
2022-09-10T08:05:04.674Z,16.60
2022-09-10T08:07:39.890Z,16.70
2022-09-10T08:10:18.477Z,16.80
2022-09-10T08:12:53.241Z,16.90
2022-09-10T08:15:28.018Z,16.80
2022-09-10T08:18:03.262Z,16.80
2022-09-10T08:20:39.277Z,17.00
2022-09-10T08:23:13.855Z,17.10
2022-09-10T08:25:56.099Z,17.30
2022-09-10T08:28:30.468Z,17.40
2022-09-10T08:31:08.654Z,17.70
2022-09-10T08:33:58.841Z,17.90
2022-09-10T08:36:33.940Z,18.40
2022-09-10T08:39:08.781Z,18.20
2022-09-10T08:41:59.460Z,18.20
2022-09-10T08:44:40.161Z,18.40
2022-09-10T08:47:28.520Z,18.50
2022-09-10T08:50:11.828Z,18.70
2022-09-10T08:53:07.119Z,18.50
2022-09-10T08:55:48.312Z,18.70
2022-09-10T08:58:45.491Z,18.80
2022-09-10T09:01:31.959Z,19.10
2022-09-10T09:04:28.969Z,19.20
2022-09-10T09:07:20.359Z,19.00
2022-09-10T09:10:06.156Z,18.90
2022-09-10T09:12:52.111Z,18.90
2022-09-10T09:15:39.274Z,19.10
2022-09-10T09:18:26.818Z,19.10
2022-09-10T09:21:07.298Z,18.90
2022-09-10T09:24:12.144Z,18.80
2022-09-10T09:26:53.374Z,18.80
2022-09-10T09:29:43.739Z,18.90
2022-09-10T09:32:30.466Z,19.10
2022-09-10T09:35:24.106Z,19.10
2022-09-10T09:38:18.233Z,19.20
2022-09-10T09:40:56.729Z,19.50
2022-09-10T09:43:50.866Z,19.20
2022-09-10T09:46:27.981Z,19.20
2022-09-10T09:49:08.258Z,19.00
2022-09-10T09:51:43.367Z,18.70
2022-09-10T09:55:12.753Z,18.80
2022-09-10T09:57:23.706Z,18.70
2022-09-10T10:00:37.346Z,18.90
2022-09-10T10:03:25.952Z,18.80
2022-09-10T10:06:08.630Z,19.00
2022-09-10T10:09:22.019Z,19.20
2022-09-10T10:11:59.761Z,19.40
2022-09-10T10:14:46.213Z,19.60
2022-09-10T10:17:58.175Z,20.00
2022-09-10T10:20:41.815Z,19.90
2022-09-10T10:23:36.776Z,19.80
2022-09-10T10:26:31.392Z,19.70
2022-09-10T10:29:10.074Z,19.70
2022-09-10T10:31:47.334Z,19.80
2022-09-10T10:34:47.952Z,20.20
2022-09-10T10:37:34.795Z,20.40
2022-09-10T10:40:31.844Z,19.90
2022-09-10T10:43:20.860Z,19.60
2022-09-10T10:46:08.817Z,19.60
2022-09-10T10:49:04.088Z,19.50
2022-09-10T10:51:54.819Z,19.50
2022-09-10T10:55:03.220Z,19.80
2022-09-10T10:58:14.334Z,20.00
2022-09-10T11:00:55.049Z,20.10
2022-09-10T11:03:43.185Z,20.20
2022-09-10T11:06:25.425Z,20.10
2022-09-10T11:09:07.610Z,19.90
2022-09-10T11:11:53.264Z,19.90
2022-09-10T11:14:48.988Z,19.90
2022-09-10T11:17:36.750Z,19.90
2022-09-10T11:20:29.061Z,20.00
2022-09-10T11:23:23.360Z,20.30
2022-09-10T11:26:06.531Z,20.40
2022-09-10T11:28:49.116Z,19.90
2022-09-10T11:31:36.882Z,19.80
2022-09-10T11:34:31.191Z,20.00
2022-09-10T11:37:28.141Z,20.30
2022-09-10T11:40:40.326Z,20.30
2022-09-10T11:43:36.843Z,20.00
2022-09-10T11:46:23.457Z,20.30
2022-09-10T11:49:18.778Z,20.30
2022-09-10T11:51:54.194Z,20.20
2022-09-10T11:57:49.528Z,19.70
2022-09-10T12:00:27.269Z,19.40
2022-09-10T12:07:03.559Z,19.50
2022-09-10T12:09:48.917Z,19.70
2022-09-10T12:12:33.482Z,19.60
2022-09-10T12:15:26.068Z,19.70
2022-09-10T12:18:06.438Z,20.20
2022-09-10T12:20:46.241Z,20.10
2022-09-10T12:23:32.119Z,20.50
2022-09-10T12:26:30.042Z,20.60
2022-09-10T12:29:34.528Z,20.50
2022-09-10T12:32:49.306Z,20.70
2022-09-10T12:39:38.273Z,20.30
2022-09-10T12:42:46.590Z,20.20
2022-09-10T12:46:06.838Z,20.30
2022-09-10T12:48:45.189Z,20.30
2022-09-10T12:51:48.224Z,20.20
2022-09-10T12:55:10.539Z,20.80
2022-09-10T12:57:54.161Z,20.50
2022-09-10T13:00:40.144Z,20.60
2022-09-10T13:03:19.255Z,20.40
2022-09-10T13:06:10.819Z,20.50
2022-09-10T13:09:06.697Z,20.60
2022-09-10T13:11:49.886Z,20.60
2022-09-10T13:14:34.081Z,20.90
2022-09-10T13:17:42.434Z,20.90
2022-09-10T13:23:42.542Z,20.70
2022-09-10T13:26:54.381Z,20.90
2022-09-10T13:29:38.613Z,20.60
2022-09-10T13:32:28.945Z,20.40
2022-09-10T13:35:21.185Z,20.30
2022-09-10T13:38:39.970Z,20.20
2022-09-10T13:41:56.204Z,20.10
2022-09-10T13:45:04.389Z,20.10
2022-09-10T13:48:18.262Z,20.10
2022-09-10T13:51:05.174Z,20.10
2022-09-10T13:53:49.224Z,20.00
2022-09-10T13:56:33.562Z,20.10
2022-09-10T13:59:22.159Z,20.10
2022-09-10T14:01:58.406Z,20.10
2022-09-10T14:04:36.856Z,20.30
2022-09-10T14:07:20.383Z,20.20
2022-09-10T14:10:05.337Z,20.20
2022-09-10T14:12:48.520Z,20.30
2022-09-10T14:15:31.443Z,20.40
2022-09-10T14:18:12.006Z,20.20
2022-09-10T14:20:47.917Z,20.00
2022-09-10T14:23:46.185Z,19.80
2022-09-10T14:26:26.478Z,19.80
2022-09-10T14:29:29.732Z,19.80
2022-09-10T14:33:00.786Z,19.80
2022-09-10T14:35:43.804Z,19.50
2022-09-10T14:38:31.174Z,19.50
2022-09-10T14:41:21.892Z,19.40
2022-09-10T14:44:30.813Z,19.30
2022-09-10T14:47:29.802Z,19.10
2022-09-10T14:50:32.277Z,19.20
2022-09-10T14:53:12.638Z,19.20
2022-09-10T14:55:46.990Z,19.20
2022-09-10T14:58:22.196Z,19.20
2022-09-10T15:00:58.645Z,19.30
2022-09-10T15:03:33.475Z,19.30
2022-09-10T15:06:11.957Z,19.30
2022-09-10T15:08:47.100Z,19.30
2022-09-10T15:11:24.473Z,19.30
2022-09-10T15:13:59.630Z,19.20
2022-09-10T15:16:35.205Z,19.30
2022-09-10T15:19:09.547Z,19.50
2022-09-10T15:21:45.184Z,19.80
2022-09-10T15:24:29.676Z,20.00
2022-09-10T15:27:04.151Z,20.20
2022-09-10T15:29:39.613Z,20.10
2022-09-10T15:32:14.104Z,20.10
2022-09-10T15:34:53.113Z,19.80
2022-09-10T15:37:29.152Z,19.80
2022-09-10T15:40:11.962Z,19.60
2022-09-10T15:42:47.038Z,19.60
2022-09-10T15:45:22.642Z,19.50
2022-09-10T15:47:57.894Z,19.40
2022-09-10T15:50:33.174Z,19.30
2022-09-10T15:53:11.894Z,19.20
2022-09-10T15:55:53.629Z,19.00
2022-09-10T15:58:29.308Z,18.90
2022-09-10T16:01:06.197Z,18.80
2022-09-10T16:03:46.777Z,18.80
2022-09-10T16:06:23.485Z,18.80
2022-09-10T16:09:02.655Z,18.70
2022-09-10T16:11:39.679Z,18.70
2022-09-10T16:14:18.944Z,18.70
2022-09-10T16:16:59.166Z,18.70
2022-09-10T16:19:34.355Z,18.70
2022-09-10T16:22:09.659Z,18.60
2022-09-10T16:24:46.015Z,18.70
2022-09-10T16:27:21.053Z,18.60
2022-09-10T16:29:55.684Z,18.60
2022-09-10T16:32:34.421Z,18.60
2022-09-10T16:35:10.107Z,18.50
2022-09-10T16:37:44.552Z,18.40
2022-09-10T16:40:20.783Z,18.40
2022-09-10T16:42:55.626Z,18.40
2022-09-10T16:45:34.398Z,18.30
2022-09-10T16:48:09.480Z,18.30
2022-09-10T16:50:44.895Z,18.30
2022-09-10T16:53:20.548Z,18.30
2022-09-10T16:56:02.939Z,18.30
2022-09-10T16:58:45.177Z,18.30
2022-09-10T17:01:20.999Z,18.20
2022-09-10T17:03:56.549Z,18.20
2022-09-10T17:06:32.740Z,18.10
2022-09-10T17:09:07.295Z,18.10
2022-09-10T17:11:45.796Z,18.00
2022-09-10T17:14:20.947Z,18.00
2022-09-10T17:16:55.942Z,18.00
2022-09-10T17:19:30.468Z,18.00
2022-09-10T17:22:05.208Z,18.00
2022-09-10T17:24:50.008Z,17.90
2022-09-10T17:27:28.033Z,17.90
2022-09-10T17:30:02.796Z,17.80
2022-09-10T17:32:37.360Z,17.80
2022-09-10T17:35:12.259Z,17.80
2022-09-10T17:37:59.247Z,17.80
2022-09-10T17:40:34.694Z,17.70
2022-09-10T17:43:11.482Z,17.70
2022-09-10T17:45:46.086Z,17.70
2022-09-10T17:48:24.216Z,17.60
2022-09-10T17:51:06.071Z,17.50
2022-09-10T17:53:41.495Z,17.50
2022-09-10T17:56:19.850Z,17.50
2022-09-10T17:59:07.493Z,17.50
2022-09-10T18:01:43.177Z,17.50
2022-09-10T18:04:22.877Z,17.40
2022-09-10T18:06:57.615Z,17.40
2022-09-10T18:09:33.057Z,17.40
2022-09-10T18:12:08.349Z,17.30
2022-09-10T18:14:44.416Z,17.30
2022-09-10T18:17:18.879Z,17.30
2022-09-10T18:19:55.573Z,17.30
2022-09-10T18:22:29.967Z,17.30
2022-09-10T18:25:04.436Z,17.20
2022-09-10T18:27:41.863Z,17.20
2022-09-10T18:30:24.076Z,17.20
2022-09-10T18:33:11.837Z,17.10
2022-09-10T18:35:55.956Z,17.00
2022-09-10T18:38:31.860Z,17.00
2022-09-10T18:41:06.716Z,17.00
2022-09-10T18:43:41.391Z,16.90
2022-09-10T18:46:20.506Z,16.90
2022-09-10T18:49:00.501Z,16.90
2022-09-10T18:51:37.559Z,16.90
2022-09-10T18:54:18.325Z,16.90
2022-09-10T18:56:53.501Z,16.80
2022-09-10T18:59:28.907Z,16.80
2022-09-10T19:02:06.537Z,16.70
2022-09-10T19:05:09.849Z,16.80
2022-09-10T19:07:52.954Z,16.70
2022-09-10T19:10:27.450Z,16.70
2022-09-10T19:13:08.063Z,16.60
2022-09-10T19:15:42.769Z,16.60
2022-09-10T19:18:19.116Z,16.60
2022-09-10T19:20:54.127Z,16.70
2022-09-10T19:23:28.760Z,16.70
2022-09-10T19:26:05.131Z,16.60
2022-09-10T19:28:40.974Z,16.60
2022-09-10T19:31:20.872Z,16.60
2022-09-10T19:34:00.230Z,16.60
2022-09-10T19:36:36.322Z,16.60
2022-09-10T19:39:14.487Z,16.60
2022-09-10T19:41:50.517Z,16.60
2022-09-10T19:44:35.379Z,16.60
2022-09-10T19:47:10.598Z,16.60
2022-09-10T19:49:48.404Z,16.60
2022-09-10T19:52:24.792Z,16.50
2022-09-10T19:55:00.905Z,16.50
2022-09-10T19:57:35.786Z,16.50
2022-09-10T20:00:24.954Z,16.50
2022-09-10T20:03:11.581Z,16.50
2022-09-10T20:05:53.741Z,16.50
2022-09-10T20:08:28.393Z,16.50
2022-09-10T20:11:03.782Z,16.40
2022-09-10T20:13:41.407Z,16.50
2022-09-10T20:16:18.112Z,16.40
2022-09-10T20:18:53.144Z,16.40
2022-09-10T20:21:32.236Z,16.30
2022-09-10T20:24:09.193Z,16.30
2022-09-10T20:26:46.904Z,16.40
2022-09-10T20:32:17.143Z,16.20
2022-09-10T20:34:52.922Z,16.20
2022-09-10T20:37:28.977Z,16.20
2022-09-10T20:40:05.787Z,16.20
2022-09-10T20:42:40.761Z,16.20
2022-09-10T20:45:17.801Z,16.20
2022-09-10T20:47:53.411Z,16.20
2022-09-10T20:50:29.913Z,16.20
2022-09-10T20:53:07.495Z,16.10
2022-09-10T20:55:42.821Z,16.00
2022-09-10T20:58:18.700Z,16.00
2022-09-10T21:01:11.432Z,16.00
2022-09-10T21:03:48.122Z,16.00
2022-09-10T21:06:27.751Z,16.00
2022-09-10T21:09:22.599Z,16.00
2022-09-10T21:12:08.110Z,15.90
2022-09-10T21:17:40.518Z,15.80
2022-09-10T21:20:30.626Z,15.80
2022-09-10T21:23:11.749Z,15.70
2022-09-10T21:25:59.203Z,15.70
2022-09-10T21:28:35.596Z,15.70
2022-09-10T21:31:12.979Z,15.70
2022-09-10T21:34:02.402Z,15.70
2022-09-10T21:36:44.098Z,15.70
2022-09-10T21:39:30.689Z,15.70
2022-09-10T21:42:13.993Z,15.60
2022-09-10T21:45:07.083Z,15.60
2022-09-10T21:47:44.327Z,15.50
2022-09-10T21:50:25.698Z,15.60
2022-09-10T21:53:02.069Z,15.60
2022-09-10T21:55:38.485Z,15.60
2022-09-10T21:58:20.432Z,15.60
2022-09-10T22:01:14.549Z,15.70
2022-09-10T22:03:51.543Z,15.70
2022-09-10T22:06:28.398Z,15.70
2022-09-10T22:09:06.495Z,15.70
2022-09-10T22:11:57.958Z,15.60
2022-09-10T22:14:34.487Z,15.60
2022-09-10T22:17:08.874Z,15.50
2022-09-10T22:19:43.861Z,15.50
2022-09-10T22:22:19.004Z,15.60
2022-09-10T22:24:58.774Z,15.50
2022-09-10T22:27:33.494Z,15.50
2022-09-10T22:30:15.313Z,15.50
2022-09-10T22:32:50.569Z,15.50
2022-09-10T22:35:27.459Z,15.50
2022-09-10T22:38:02.232Z,15.50
2022-09-10T22:40:41.305Z,15.40
2022-09-10T22:43:16.985Z,15.40
2022-09-10T22:45:56.308Z,15.30
2022-09-10T22:48:30.758Z,15.40
2022-09-10T22:51:07.826Z,15.40
2022-09-10T22:53:44.749Z,15.40
2022-09-10T22:56:22.219Z,15.40
2022-09-10T22:59:03.800Z,15.40
2022-09-10T23:01:41.890Z,15.30
2022-09-10T23:04:16.775Z,15.30
2022-09-10T23:06:51.917Z,15.20
2022-09-10T23:09:30.423Z,15.20
2022-09-10T23:12:13.203Z,15.20
2022-09-10T23:14:49.244Z,15.20
2022-09-10T23:17:25.418Z,15.10
2022-09-10T23:20:03.035Z,15.20
2022-09-10T23:22:40.659Z,15.20
2022-09-10T23:25:15.606Z,15.20
2022-09-10T23:27:51.613Z,15.20
2022-09-10T23:30:26.328Z,15.10
2022-09-10T23:33:21.326Z,15.10
2022-09-10T23:35:56.384Z,15.20
2022-09-10T23:38:36.268Z,15.20
2022-09-10T23:41:12.231Z,15.20
2022-09-10T23:43:48.618Z,15.20
2022-09-10T23:46:24.319Z,15.20
2022-09-10T23:49:04.747Z,15.20
2022-09-10T23:51:40.039Z,15.10
2022-09-10T23:54:15.546Z,15.20
2022-09-10T23:56:50.319Z,15.10
2022-09-10T23:59:27.099Z,15.10
